createdAt,value
2023-03-12T00:02:03.457Z,2.90
2023-03-12T00:04:31.128Z,2.80
2023-03-12T00:06:58.013Z,2.80
2023-03-12T00:09:25.153Z,2.90
2023-03-12T00:11:52.625Z,2.80
2023-03-12T00:14:19.273Z,2.90
2023-03-12T00:16:46.620Z,2.90
2023-03-12T00:19:13.757Z,2.90
2023-03-12T00:21:40.869Z,3.00
2023-03-12T00:24:08.589Z,3.00
2023-03-12T00:26:35.848Z,2.90
2023-03-12T00:29:02.888Z,2.90
2023-03-12T00:31:34.832Z,3.00
2023-03-12T00:34:01.948Z,3.00
2023-03-12T00:36:30.420Z,2.90
2023-03-12T00:38:57.850Z,2.90
2023-03-12T00:41:28.841Z,2.80
2023-03-12T00:43:56.082Z,2.80
2023-03-12T00:46:23.693Z,2.80
2023-03-12T00:48:50.538Z,2.90
2023-03-12T00:51:19.058Z,3.00
2023-03-12T00:53:46.549Z,3.00
2023-03-12T00:56:13.716Z,3.10
2023-03-12T00:58:46.392Z,3.10
2023-03-12T01:01:13.424Z,3.10
2023-03-12T01:03:41.376Z,3.10
2023-03-12T01:06:08.278Z,3.10
2023-03-12T01:08:36.475Z,3.00
2023-03-12T01:11:03.633Z,3.00
2023-03-12T01:13:32.061Z,2.90
2023-03-12T01:15:59.102Z,3.00
2023-03-12T01:18:26.815Z,2.90
2023-03-12T01:20:53.853Z,2.90
2023-03-12T01:23:22.407Z,2.90
2023-03-12T01:25:50.364Z,2.90
2023-03-12T01:28:17.534Z,2.90
2023-03-12T01:30:44.874Z,3.00
2023-03-12T01:33:12.389Z,3.00
2023-03-12T01:35:40.077Z,3.00
2023-03-12T01:38:15.734Z,2.90
2023-03-12T01:40:43.342Z,2.90
2023-03-12T01:43:25.787Z,2.80
2023-03-12T01:46:05.742Z,2.90
2023-03-12T01:48:39.868Z,2.90
2023-03-12T01:51:07.798Z,2.90
2023-03-12T01:53:35.932Z,2.70
2023-03-12T01:56:06.728Z,2.60
2023-03-12T01:58:33.815Z,2.70
2023-03-12T02:01:01.506Z,2.60
2023-03-12T02:03:30.078Z,2.50
2023-03-12T02:06:07.101Z,2.50
2023-03-12T02:08:37.250Z,2.50
2023-03-12T02:11:04.468Z,2.50
2023-03-12T02:13:32.857Z,2.60
2023-03-12T02:16:00.677Z,2.60
2023-03-12T02:18:27.710Z,2.50
2023-03-12T02:21:16.792Z,2.60
2023-03-12T02:24:15.580Z,2.50
2023-03-12T02:26:44.301Z,2.60
2023-03-12T02:29:11.002Z,2.50
2023-03-12T02:31:50.340Z,2.50
2023-03-12T02:34:17.947Z,2.40
2023-03-12T02:36:44.996Z,2.30
2023-03-12T02:39:12.915Z,2.20
2023-03-12T02:41:46.940Z,2.10
2023-03-12T02:44:19.030Z,2.10
2023-03-12T02:46:53.267Z,2.10
2023-03-12T02:49:20.904Z,2.10
2023-03-12T02:51:49.053Z,2.00
2023-03-12T02:54:17.228Z,1.90
2023-03-12T02:56:44.287Z,2.00
2023-03-12T02:59:11.172Z,2.00
2023-03-12T03:01:41.794Z,2.10
2023-03-12T03:04:09.289Z,2.10
2023-03-12T03:06:36.098Z,2.00
2023-03-12T03:09:02.984Z,2.00
2023-03-12T03:11:30.285Z,2.00
2023-03-12T03:13:57.518Z,1.90
2023-03-12T03:16:24.315Z,1.90
2023-03-12T03:18:52.919Z,1.90
2023-03-12T03:21:22.580Z,1.90
2023-03-12T03:23:49.978Z,2.00
2023-03-12T03:26:19.546Z,1.90
2023-03-12T03:28:46.675Z,1.90
2023-03-12T03:31:14.881Z,1.90
2023-03-12T03:33:42.660Z,1.90
2023-03-12T03:36:10.618Z,1.90
2023-03-12T03:38:49.084Z,2.00
2023-03-12T03:41:18.058Z,1.90
2023-03-12T03:43:45.227Z,1.90
2023-03-12T03:46:13.842Z,2.00
2023-03-12T03:48:43.664Z,2.00
2023-03-12T03:51:11.206Z,1.90
2023-03-12T03:53:41.614Z,1.80
2023-03-12T03:56:14.018Z,1.80
2023-03-12T03:58:45.704Z,1.80
2023-03-12T04:01:14.179Z,1.80
2023-03-12T04:03:42.024Z,1.80
2023-03-12T04:06:09.560Z,1.80
2023-03-12T04:08:37.281Z,1.80
2023-03-12T04:11:11.111Z,1.80
2023-03-12T04:13:38.023Z,1.80
2023-03-12T04:16:06.993Z,1.80
2023-03-12T04:18:36.150Z,1.80
2023-03-12T04:21:04.620Z,1.70
2023-03-12T04:23:31.584Z,1.70
2023-03-12T04:25:58.790Z,1.70
2023-03-12T04:28:26.110Z,1.70
2023-03-12T04:31:02.118Z,1.70
2023-03-12T04:33:36.915Z,1.60
2023-03-12T04:36:05.530Z,1.60
2023-03-12T04:38:33.344Z,1.70
2023-03-12T04:41:04.691Z,1.60
2023-03-12T04:43:31.777Z,1.60
2023-03-12T04:45:58.981Z,1.60
2023-03-12T04:48:26.112Z,1.60
2023-03-12T04:50:53.181Z,1.60
2023-03-12T04:53:20.489Z,1.70
2023-03-12T04:55:49.329Z,1.70
2023-03-12T04:58:19.089Z,1.80
2023-03-12T05:00:47.141Z,1.80
2023-03-12T05:03:14.210Z,1.90
2023-03-12T05:05:41.275Z,1.90
2023-03-12T05:08:08.319Z,2.00
2023-03-12T05:10:35.982Z,2.00
2023-03-12T05:13:03.565Z,2.00
2023-03-12T05:15:30.459Z,2.10
2023-03-12T05:17:57.800Z,2.10
2023-03-12T05:20:25.419Z,2.00
2023-03-12T05:22:52.769Z,2.00
2023-03-12T05:25:19.878Z,1.80
2023-03-12T05:27:46.633Z,1.90
2023-03-12T05:30:15.034Z,1.80
2023-03-12T05:32:42.438Z,1.80
2023-03-12T05:35:10.356Z,1.80
2023-03-12T05:37:37.671Z,1.80
2023-03-12T05:40:05.018Z,1.80
2023-03-12T05:42:32.115Z,1.90
2023-03-12T05:45:00.538Z,1.90
2023-03-12T05:47:27.725Z,1.90
2023-03-12T05:49:55.077Z,1.90
2023-03-12T05:52:21.803Z,2.00
2023-03-12T05:54:49.524Z,2.00
2023-03-12T05:57:16.404Z,2.10
2023-03-12T05:59:43.096Z,2.10
2023-03-12T06:02:10.182Z,2.10
2023-03-12T06:04:37.822Z,2.10
2023-03-12T06:07:05.246Z,2.10
2023-03-12T06:09:34.544Z,2.10
2023-03-12T06:12:01.460Z,2.10
2023-03-12T06:14:30.213Z,2.10
2023-03-12T06:16:57.572Z,2.10
2023-03-12T06:19:24.304Z,2.10
2023-03-12T06:21:53.930Z,2.20
2023-03-12T06:24:21.428Z,2.20
2023-03-12T06:26:53.609Z,2.20
2023-03-12T06:29:20.797Z,2.30
2023-03-12T06:31:48.230Z,2.30
2023-03-12T06:34:16.736Z,2.30
2023-03-12T06:36:43.962Z,2.30
2023-03-12T06:39:10.692Z,2.30
2023-03-12T06:41:38.048Z,2.40
2023-03-12T06:44:06.338Z,2.30
2023-03-12T06:46:33.558Z,2.40
2023-03-12T06:49:00.632Z,2.40
2023-03-12T06:51:27.713Z,2.40
2023-03-12T06:53:55.164Z,2.40
2023-03-12T06:56:22.040Z,2.40
2023-03-12T06:58:48.832Z,2.40
2023-03-12T07:01:16.554Z,2.40
2023-03-12T07:03:46.449Z,2.40
2023-03-12T07:06:20.239Z,2.40
2023-03-12T07:08:49.316Z,2.50
2023-03-12T07:11:17.683Z,2.50
2023-03-12T07:13:45.744Z,2.60
2023-03-12T07:16:12.998Z,2.70
2023-03-12T07:18:41.257Z,2.80
2023-03-12T07:21:08.518Z,2.80
2023-03-12T07:23:35.436Z,2.90
2023-03-12T07:26:05.296Z,3.10
2023-03-12T07:28:32.536Z,3.00
2023-03-12T07:31:04.341Z,3.00
2023-03-12T07:33:32.062Z,3.00
2023-03-12T07:36:00.489Z,3.00
2023-03-12T07:38:28.262Z,3.00
2023-03-12T07:40:57.251Z,3.10
2023-03-12T07:43:24.941Z,3.10
2023-03-12T07:45:55.001Z,3.20
2023-03-12T07:48:23.521Z,3.30
2023-03-12T07:50:50.828Z,3.30
2023-03-12T07:53:17.762Z,3.40
2023-03-12T07:55:46.294Z,3.30
2023-03-12T07:58:13.899Z,3.40
2023-03-12T08:00:41.071Z,3.50
2023-03-12T08:03:08.558Z,3.50
2023-03-12T08:05:35.656Z,3.60
2023-03-12T08:08:02.985Z,3.70
2023-03-12T08:10:30.045Z,3.70
2023-03-12T08:12:56.930Z,3.80
2023-03-12T08:15:23.750Z,3.80
2023-03-12T08:17:52.187Z,3.80
2023-03-12T08:20:18.976Z,3.80
2023-03-12T08:22:48.886Z,3.90
2023-03-12T08:25:21.014Z,4.00
2023-03-12T08:27:47.761Z,4.00
2023-03-12T08:30:14.912Z,4.10
2023-03-12T08:32:42.042Z,4.10
2023-03-12T08:35:10.771Z,4.20
2023-03-12T08:47:28.741Z,4.50
2023-03-12T08:48:54.829Z,4.60
2023-03-12T08:51:35.339Z,4.90
2023-03-12T08:54:32.934Z,5.10
2023-03-12T08:57:00.523Z,5.60
2023-03-12T08:59:33.558Z,6.00
2023-03-12T09:02:01.561Z,6.30
2023-03-12T09:04:28.448Z,6.50
2023-03-12T09:06:57.687Z,6.60
2023-03-12T09:09:25.533Z,6.70
2023-03-12T09:11:52.655Z,6.90
2023-03-12T09:14:59.560Z,6.90
2023-03-12T09:17:06.677Z,7.10
2023-03-12T09:19:33.942Z,7.10
2023-03-12T09:22:01.362Z,7.20
2023-03-12T09:24:28.989Z,7.20
2023-03-12T09:26:55.957Z,7.30
2023-03-12T09:29:25.433Z,7.40
2023-03-12T09:31:53.810Z,7.40
2023-03-12T09:34:20.664Z,7.50
2023-03-12T09:36:50.583Z,7.60
2023-03-12T09:40:12.099Z,7.70
2023-03-12T09:42:46.891Z,7.90
2023-03-12T09:45:57.297Z,8.00
2023-03-12T09:54:23.571Z,8.80
2023-03-12T09:56:55.313Z,8.90
2023-03-12T09:59:27.585Z,9.00
2023-03-12T10:02:00.332Z,9.20
2023-03-12T10:05:00.361Z,9.30
2023-03-12T10:07:42.195Z,9.40
2023-03-12T10:10:47.658Z,9.40
2023-03-12T10:13:27.695Z,9.50
2023-03-12T10:23:16.905Z,10.20
2023-03-12T10:25:48.743Z,10.30
2023-03-12T10:28:24.328Z,10.40
2023-03-12T10:31:03.300Z,10.40
2023-03-12T10:33:52.194Z,10.20
2023-03-12T10:36:23.936Z,9.90
2023-03-12T10:38:50.659Z,9.80
2023-03-12T10:41:25.608Z,9.70
2023-03-12T10:43:52.363Z,9.70
2023-03-12T10:46:37.481Z,9.70
2023-03-12T10:49:22.524Z,9.70
2023-03-12T10:52:05.108Z,9.80
2023-03-12T10:54:40.575Z,10.30
2023-03-12T10:57:07.783Z,10.30
2023-03-12T10:59:36.120Z,10.10
2023-03-12T11:02:03.633Z,10.20
2023-03-12T11:04:33.163Z,10.20
2023-03-12T11:07:16.334Z,10.10
2023-03-12T11:09:43.075Z,10.00
2023-03-12T11:12:27.509Z,9.90
2023-03-12T11:14:54.187Z,9.90
2023-03-12T11:17:23.138Z,9.80
2023-03-12T11:19:49.940Z,9.90
2023-03-12T11:22:33.678Z,10.70
2023-03-12T11:25:23.078Z,11.60
2023-03-12T11:27:51.144Z,12.40
2023-03-12T11:30:21.999Z,13.10
2023-03-12T11:32:49.287Z,13.60
2023-03-12T11:35:18.184Z,13.80
2023-03-12T11:38:10.421Z,13.80
2023-03-12T11:40:55.070Z,14.00
2023-03-12T11:43:45.051Z,13.90
2023-03-12T11:46:40.245Z,13.60
2023-03-12T11:49:28.494Z,12.90
2023-03-12T11:52:23.000Z,12.10
2023-03-12T11:55:01.656Z,11.50
2023-03-12T11:57:57.157Z,11.20
2023-03-12T12:00:49.225Z,10.80
2023-03-12T12:03:44.508Z,10.50
2023-03-12T12:06:40.327Z,10.40
2023-03-12T12:09:16.092Z,10.40
2023-03-12T12:11:50.917Z,10.40
2023-03-12T12:14:37.537Z,10.50
2023-03-12T12:17:22.812Z,10.80
2023-03-12T12:19:56.571Z,11.60
2023-03-12T12:22:26.960Z,12.70
2023-03-12T12:25:18.959Z,12.70
2023-03-12T12:27:52.841Z,11.90
2023-03-12T12:30:48.504Z,11.50
2023-03-12T12:33:25.123Z,11.00
2023-03-12T12:35:51.902Z,10.70
2023-03-12T12:38:30.368Z,10.60
2023-03-12T12:41:03.442Z,10.50
2023-03-12T12:43:35.432Z,10.40
2023-03-12T12:46:18.164Z,10.40
2023-03-12T12:48:53.656Z,10.40
2023-03-12T12:51:21.811Z,10.50
2023-03-12T12:53:56.661Z,10.60
2023-03-12T12:56:33.664Z,10.60
2023-03-12T12:59:25.583Z,10.50
2023-03-12T13:01:55.934Z,10.50
2023-03-12T13:04:48.922Z,10.50
2023-03-12T13:07:15.519Z,10.40
2023-03-12T13:09:46.478Z,10.50
2023-03-12T13:12:20.917Z,10.60
2023-03-12T13:14:48.257Z,10.70
2023-03-12T13:17:23.431Z,10.70
2023-03-12T13:20:01.022Z,10.70
2023-03-12T13:22:38.462Z,10.70
2023-03-12T13:25:33.853Z,10.60
2023-03-12T13:28:02.514Z,10.50
2023-03-12T13:30:35.260Z,10.40
2023-03-12T13:33:05.208Z,10.40
2023-03-12T13:35:38.984Z,10.40
2023-03-12T13:38:12.810Z,10.50
2023-03-12T13:40:40.756Z,10.60
2023-03-12T13:43:13.320Z,10.70
2023-03-12T13:46:01.956Z,10.60
2023-03-12T13:48:28.819Z,10.60
2023-03-12T13:51:00.591Z,10.60
2023-03-12T13:53:40.313Z,10.50
2023-03-12T13:56:08.345Z,10.50
2023-03-12T13:58:57.464Z,10.50
2023-03-12T14:01:27.485Z,10.40
2023-03-12T14:04:02.586Z,10.30
2023-03-12T14:06:30.189Z,10.30
2023-03-12T14:09:19.085Z,10.30
2023-03-12T14:12:01.758Z,10.40
2023-03-12T14:14:41.211Z,10.40
2023-03-12T14:17:27.672Z,10.50
2023-03-12T14:20:09.583Z,10.60
2023-03-12T14:22:36.930Z,10.70
2023-03-12T14:25:06.712Z,10.70
2023-03-12T14:27:33.452Z,10.60
2023-03-12T14:30:23.945Z,10.60
2023-03-12T14:32:53.930Z,10.60
2023-03-12T14:35:28.085Z,10.60
2023-03-12T14:38:00.879Z,10.50
2023-03-12T14:40:51.956Z,10.50
2023-03-12T14:43:34.926Z,10.40
2023-03-12T14:46:03.687Z,10.40
2023-03-12T14:48:37.149Z,10.50
2023-03-12T14:51:05.397Z,10.50
2023-03-12T14:53:32.954Z,10.60
2023-03-12T14:56:15.705Z,10.60
2023-03-12T14:58:47.379Z,10.70
2023-03-12T15:01:17.531Z,10.70
2023-03-12T15:03:46.709Z,10.70
2023-03-12T15:06:46.356Z,10.70
2023-03-12T15:09:17.959Z,10.60
2023-03-12T15:11:45.126Z,10.60
2023-03-12T15:14:15.383Z,10.60
2023-03-12T15:16:43.236Z,10.60
2023-03-12T15:19:13.737Z,10.60
2023-03-12T15:21:40.424Z,10.60
2023-03-12T15:24:07.296Z,10.60
2023-03-12T15:26:37.763Z,10.70
2023-03-12T15:29:27.344Z,10.70
2023-03-12T15:31:58.388Z,10.90
2023-03-12T15:34:32.839Z,10.90
2023-03-12T15:37:04.615Z,11.00
2023-03-12T15:39:35.266Z,10.90
2023-03-12T15:42:09.414Z,10.90
2023-03-12T15:44:57.395Z,10.80
2023-03-12T15:47:25.498Z,10.80
2023-03-12T15:49:55.259Z,10.80
2023-03-12T15:52:26.107Z,10.70
2023-03-12T15:55:12.153Z,10.80
2023-03-12T15:57:46.496Z,10.70
2023-03-12T16:00:26.883Z,10.70
2023-03-12T16:02:53.515Z,10.60
2023-03-12T16:05:21.956Z,10.60
2023-03-12T16:07:48.847Z,10.60
2023-03-12T16:10:17.031Z,10.60
2023-03-12T16:12:44.057Z,10.70
2023-03-12T16:15:15.939Z,10.70
2023-03-12T16:17:43.087Z,10.70
2023-03-12T16:20:12.255Z,10.60
2023-03-12T16:22:39.626Z,10.60
2023-03-12T16:25:07.582Z,10.70
2023-03-12T16:27:39.070Z,10.70
2023-03-12T16:30:10.601Z,10.70
2023-03-12T16:32:37.487Z,10.70
2023-03-12T16:35:11.546Z,10.60
2023-03-12T16:37:38.490Z,10.60
2023-03-12T16:40:06.265Z,10.60
2023-03-12T16:42:34.483Z,10.60
2023-03-12T16:45:01.150Z,10.60
2023-03-12T16:48:34.859Z,10.50
2023-03-12T16:51:01.808Z,10.50
2023-03-12T16:53:28.707Z,10.50
2023-03-12T16:55:57.582Z,10.50
2023-03-12T16:58:25.002Z,10.60
2023-03-12T17:00:51.987Z,10.60
2023-03-12T17:03:23.248Z,10.60
2023-03-12T17:05:49.907Z,10.60
2023-03-12T17:08:16.775Z,10.60
2023-03-12T17:10:43.585Z,10.60
2023-03-12T17:13:39.841Z,10.50
2023-03-12T17:16:06.877Z,10.40
2023-03-12T17:18:33.708Z,10.30
2023-03-12T17:21:01.012Z,10.30
2023-03-12T17:23:28.476Z,10.20
2023-03-12T17:25:55.376Z,10.20
2023-03-12T17:28:22.105Z,10.30
2023-03-12T17:30:48.963Z,10.20
2023-03-12T17:33:16.640Z,10.20
2023-03-12T17:35:43.611Z,10.20
2023-03-12T17:38:11.224Z,10.10
2023-03-12T17:40:42.115Z,10.10
2023-03-12T17:43:08.886Z,10.10
2023-03-12T17:45:36.949Z,10.10
2023-03-12T17:48:03.883Z,10.00
2023-03-12T17:50:30.610Z,10.00
2023-03-12T17:52:57.406Z,10.00
2023-03-12T17:55:24.127Z,10.00
2023-03-12T17:57:50.964Z,9.90
2023-03-12T18:00:18.127Z,9.90
2023-03-12T18:02:45.044Z,9.80
2023-03-12T18:05:12.010Z,9.80
2023-03-12T18:07:38.976Z,9.80
2023-03-12T18:10:07.622Z,9.90
2023-03-12T18:12:34.839Z,9.90
2023-03-12T18:15:01.801Z,9.90
2023-03-12T18:17:28.639Z,9.90
2023-03-12T18:19:55.573Z,9.80
2023-03-12T18:22:23.204Z,9.90
2023-03-12T18:24:50.129Z,9.90
2023-03-12T18:27:17.048Z,9.90
2023-03-12T18:29:43.831Z,9.90
2023-03-12T18:32:10.671Z,9.90
2023-03-12T18:34:37.641Z,9.80
2023-03-12T18:37:04.490Z,9.80
2023-03-12T18:39:31.422Z,9.70
2023-03-12T18:41:58.356Z,9.70
2023-03-12T18:44:25.176Z,9.70
2023-03-12T18:46:52.015Z,9.70
2023-03-12T18:49:18.854Z,9.60
2023-03-12T18:51:45.838Z,9.60
2023-03-12T18:54:12.733Z,9.60
2023-03-12T18:56:40.678Z,9.60
2023-03-12T18:59:09.660Z,9.50
2023-03-12T19:01:36.568Z,9.60
2023-03-12T19:04:03.495Z,9.50
2023-03-12T19:06:40.858Z,9.50
2023-03-12T19:09:14.847Z,9.50
2023-03-12T19:11:41.529Z,9.50
2023-03-12T19:14:08.392Z,9.50
2023-03-12T19:16:35.354Z,9.60
2023-03-12T19:19:02.265Z,9.60
2023-03-12T19:21:29.079Z,9.50
2023-03-12T19:23:56.263Z,9.50
2023-03-12T19:26:23.130Z,9.50
2023-03-12T19:28:49.852Z,9.50
2023-03-12T19:31:16.669Z,9.50
2023-03-12T19:33:44.668Z,9.50
2023-03-12T19:36:11.433Z,9.50
2023-03-12T19:38:38.477Z,9.50
2023-03-12T19:41:06.693Z,9.50
2023-03-12T19:43:33.578Z,9.50
2023-03-12T19:46:00.596Z,9.50
2023-03-12T19:48:27.602Z,9.50
2023-03-12T19:50:55.842Z,9.50
2023-03-12T19:53:22.788Z,9.40
2023-03-12T19:55:49.750Z,9.40
2023-03-12T19:58:17.110Z,9.40
2023-03-12T20:00:44.275Z,9.40
2023-03-12T20:03:11.186Z,9.40
2023-03-12T20:05:38.059Z,9.40
2023-03-12T20:08:04.922Z,9.50
2023-03-12T20:10:32.277Z,9.50
2023-03-12T20:12:59.017Z,9.50
2023-03-12T20:15:26.404Z,9.50
2023-03-12T20:17:58.242Z,9.50
2023-03-12T20:20:25.117Z,9.50
2023-03-12T20:22:51.839Z,9.50
2023-03-12T20:25:18.490Z,9.50
2023-03-12T20:27:46.032Z,9.40
2023-03-12T20:30:13.223Z,9.40
2023-03-12T20:32:39.944Z,9.30
2023-03-12T20:35:07.108Z,9.20
2023-03-12T20:37:33.763Z,9.20
2023-03-12T20:40:00.429Z,9.20
2023-03-12T20:42:27.114Z,9.20
2023-03-12T20:44:53.918Z,9.10
2023-03-12T20:47:20.627Z,9.00
2023-03-12T20:49:47.280Z,9.00
2023-03-12T20:52:13.918Z,9.00
2023-03-12T20:54:40.727Z,9.00
2023-03-12T20:57:07.371Z,9.00
2023-03-12T20:59:34.154Z,9.00
2023-03-12T21:02:00.875Z,9.10
2023-03-12T21:04:27.559Z,9.10
2023-03-12T21:06:55.726Z,9.00
2023-03-12T21:09:23.191Z,9.00
2023-03-12T21:11:50.407Z,9.00
2023-03-12T21:14:17.078Z,8.90
2023-03-12T21:16:43.778Z,9.00
2023-03-12T21:19:10.488Z,9.10
2023-03-12T21:21:37.883Z,9.10
2023-03-12T21:24:04.811Z,9.10
2023-03-12T21:26:31.453Z,9.20
2023-03-12T21:28:58.151Z,9.20
2023-03-12T21:31:26.862Z,9.20
2023-03-12T21:33:59.606Z,9.30
2023-03-12T21:36:26.566Z,9.30
2023-03-12T21:38:53.223Z,9.50
2023-03-12T21:41:20.078Z,9.50
2023-03-12T21:43:46.981Z,9.40
2023-03-12T21:46:19.139Z,9.40
2023-03-12T21:48:46.977Z,9.40
2023-03-12T21:51:14.739Z,9.50
2023-03-12T21:53:41.424Z,9.50
2023-03-12T21:56:08.244Z,9.50
2023-03-12T21:58:35.240Z,9.50
2023-03-12T22:01:03.664Z,9.50
2023-03-12T22:03:30.387Z,9.50
2023-03-12T22:05:57.027Z,9.50
2023-03-12T22:08:23.697Z,9.60
2023-03-12T22:10:50.403Z,9.60
2023-03-12T22:13:17.187Z,9.60
2023-03-12T22:15:47.327Z,9.60
2023-03-12T22:18:14.198Z,9.60
2023-03-12T22:20:40.872Z,9.60
2023-03-12T22:23:07.544Z,9.60
2023-03-12T22:25:34.550Z,9.50
2023-03-12T22:28:01.218Z,9.60
2023-03-12T22:30:27.892Z,9.60
2023-03-12T22:32:54.613Z,9.60
2023-03-12T22:35:25.630Z,9.60
2023-03-12T22:37:52.862Z,9.60
2023-03-12T22:40:19.718Z,9.60
2023-03-12T22:42:50.393Z,9.50
2023-03-12T22:45:17.056Z,9.50
2023-03-12T22:47:43.723Z,9.40
2023-03-12T22:50:11.030Z,9.40
2023-03-12T22:52:37.795Z,9.50
2023-03-12T22:55:04.668Z,9.50
2023-03-12T22:57:35.416Z,9.50
2023-03-12T23:00:02.381Z,9.50
2023-03-12T23:02:29.021Z,9.50
2023-03-12T23:04:55.733Z,9.50
2023-03-12T23:07:22.581Z,9.60
2023-03-12T23:09:49.332Z,9.60
2023-03-12T23:12:16.066Z,9.70
2023-03-12T23:14:42.727Z,9.60
2023-03-12T23:17:09.580Z,9.70
2023-03-12T23:19:36.362Z,9.70
2023-03-12T23:22:03.267Z,9.70
2023-03-12T23:24:32.912Z,9.70
2023-03-12T23:27:00.143Z,9.70
2023-03-12T23:29:26.840Z,9.70
2023-03-12T23:31:53.586Z,9.70
2023-03-12T23:34:20.264Z,9.70
2023-03-12T23:36:47.165Z,9.70
2023-03-12T23:39:14.043Z,9.70
2023-03-12T23:41:40.777Z,9.70
2023-03-12T23:44:07.475Z,9.80
2023-03-12T23:46:34.123Z,9.80
2023-03-12T23:49:00.762Z,9.80
2023-03-12T23:51:31.899Z,9.80
2023-03-12T23:54:00.636Z,9.80
2023-03-12T23:56:30.997Z,9.70
2023-03-12T23:58:57.582Z,9.70
